Time;durP1;ratioP1;P1;durP2;ratioP2;P2;SDS_P1;SDS_P2;PMS_P1;PMS_P2;Temp;Humidity;BMP_temperature;BMP_pressure;BME280_temperature;BME280_humidity;BME280_pressure;Samples;Min_cycle;Max_cycle;Signal;HPM_P1;HPM_P2
2021/04/22 00:00:45;;;;;;;6.13;2.40;;;20.80;43.80;;;;;;5005468;28;20909;-71
2021/04/22 00:03:12;;;;;;;6.07;2.20;;;20.80;43.90;;;;;;5010356;28;20425;-71
2021/04/22 00:05:38;;;;;;;3.25;1.80;;;20.80;43.70;;;;;;5004667;28;20421;-71
2021/04/22 00:08:05;;;;;;;5.47;1.93;;;20.80;43.70;;;;;;5004247;28;20436;-70
2021/04/22 00:10:34;;;;;;;5.32;2.15;;;20.80;44.40;;;;;;4997859;28;20415;-69
2021/04/22 00:13:00;;;;;;;8.88;2.35;;;20.90;43.70;;;;;;5006957;28;20415;-71
2021/04/22 00:15:26;;;;;;;4.60;2.07;;;20.90;43.40;;;;;;5006222;28;20410;-71
2021/04/22 00:17:55;;;;;;;5.68;2.38;;;21.00;43.30;;;;;;5004310;28;21001;-71
2021/04/22 00:20:21;;;;;;;5.30;2.40;;;21.00;42.90;;;;;;5003712;28;20399;-69
2021/04/22 00:22:47;;;;;;;4.78;1.90;;;21.00;43.10;;;;;;5004808;28;20412;-70
2021/04/22 00:25:14;;;;;;;3.57;1.80;;;21.00;42.90;;;;;;5005348;28;20420;-70
2021/04/22 00:27:40;;;;;;;6.30;2.00;;;21.00;42.80;;;;;;5003891;28;21141;-70
2021/04/22 00:30:07;;;;;;;7.07;2.10;;;21.00;43.50;;;;;;5003391;28;20427;-71
2021/04/22 00:32:34;;;;;;;5.72;2.35;;;21.00;43.70;;;;;;5005415;28;20911;-71
2021/04/22 00:35:01;;;;;;;6.82;2.38;;;21.00;43.50;;;;;;5003941;28;20480;-71
2021/04/22 00:37:27;;;;;;;6.53;2.17;;;20.90;43.30;;;;;;5003859;28;20795;-71
2021/04/22 00:39:53;;;;;;;4.65;1.80;;;20.90;43.50;;;;;;4991885;28;20518;-70
2021/04/22 00:42:19;;;;;;;5.07;2.20;;;20.90;42.80;;;;;;5005288;28;20468;-71
2021/04/22 00:44:47;;;;;;;5.85;2.30;;;20.80;43.40;;;;;;5003469;28;20427;-70
2021/04/22 00:47:14;;;;;;;5.07;2.40;;;20.80;43.50;;;;;;5004285;28;20420;-70
2021/04/22 00:49:40;;;;;;;4.90;1.85;;;20.80;43.40;;;;;;5005463;28;20424;-70
2021/04/22 00:52:07;;;;;;;5.63;2.20;;;20.80;43.50;;;;;;5001094;28;20422;-70
2021/04/22 00:54:33;;;;;;;6.05;2.05;;;20.80;43.60;;;;;;5004731;28;20432;-70
2021/04/22 00:56:59;;;;;;;4.45;1.88;;;20.80;43.70;;;;;;5006072;28;20415;-71
2021/04/22 00:59:25;;;;;;;3.83;1.80;;;20.80;43.30;;;;;;5006646;28;20422;-71
2021/04/22 01:01:52;;;;;;;5.65;2.30;;;20.80;43.40;;;;;;4985347;28;21908;-70
2021/04/22 01:04:18;;;;;;;6.90;2.70;;;20.80;43.30;;;;;;5004083;28;20409;-70
2021/04/22 01:06:44;;;;;;;7.47;2.90;;;20.80;43.50;;;;;;5006763;28;20430;-72
2021/04/22 01:09:14;;;;;;;6.07;2.22;;;20.80;43.10;;;;;;4999097;28;20416;-70
2021/04/22 01:11:40;;;;;;;5.88;2.10;;;20.90;43.30;;;;;;5013312;28;20441;-71
2021/04/22 01:14:07;;;;;;;3.80;1.90;;;20.90;43.30;;;;;;5006598;28;20423;-71
2021/04/22 01:16:33;;;;;;;5.68;2.00;;;20.80;42.90;;;;;;5006346;28;20926;-69
2021/04/22 01:18:59;;;;;;;5.68;2.45;;;20.90;43.00;;;;;;5006911;28;20418;-71
2021/04/22 01:21:26;;;;;;;6.20;2.00;;;20.90;43.30;;;;;;5006257;28;20420;-71
2021/04/22 01:23:52;;;;;;;6.97;2.33;;;20.90;43.30;;;;;;5007142;28;20411;-70
2021/04/22 01:26:19;;;;;;;5.13;2.67;;;20.90;43.20;;;;;;5008185;28;20417;-71
2021/04/22 01:28:45;;;;;;;3.95;2.10;;;20.80;42.90;;;;;;5009256;28;20918;-71
2021/04/22 01:31:11;;;;;;;6.07;2.17;;;20.80;42.90;;;;;;5008528;28;20768;-71
2021/04/22 01:33:38;;;;;;;8.38;2.08;;;20.80;42.80;;;;;;5009392;28;20844;-71
2021/04/22 01:36:05;;;;;;;6.65;2.20;;;20.80;43.10;;;;;;4992083;28;20424;-71
2021/04/22 01:38:32;;;;;;;6.78;2.40;;;20.80;42.80;;;;;;5008309;28;20419;-70
2021/04/22 01:40:58;;;;;;;6.25;2.50;;;20.80;43.20;;;;;;5007799;28;20477;-71
2021/04/22 01:43:25;;;;;;;4.80;2.20;;;20.80;43.00;;;;;;5005964;28;20421;-71
2021/04/22 01:45:51;;;;;;;5.60;2.47;;;20.80;43.80;;;;;;5003564;28;20433;-72
2021/04/22 01:48:17;;;;;;;5.78;2.20;;;20.80;42.70;;;;;;5007309;28;20509;-70
2021/04/22 01:50:43;;;;;;;5.03;2.30;;;20.80;42.80;;;;;;5005802;28;20431;-71
2021/04/22 01:53:09;;;;;;;6.20;2.50;;;20.90;42.60;;;;;;5016498;28;20409;-72
2021/04/22 01:55:37;;;;;;;9.10;2.20;;;20.90;42.60;;;;;;5007805;28;20417;-71
2021/04/22 01:58:04;;;;;;;3.72;2.20;;;20.90;42.40;;;;;;5015801;28;20989;-71
2021/04/22 02:00:31;;;;;;;6.72;2.10;;;20.90;42.40;;;;;;5012356;28;20856;-72
2021/04/22 02:02:58;;;;;;;7.10;2.50;;;20.90;43.60;;;;;;5005449;28;20418;-70
2021/04/22 02:05:24;;;;;;;4.95;2.30;;;20.90;43.00;;;;;;5007928;28;20418;-71
2021/04/22 02:07:50;;;;;;;7.20;2.90;;;20.90;42.80;;;;;;5006770;28;20413;-70
2021/04/22 02:10:16;;;;;;;5.80;2.15;;;20.90;42.60;;;;;;5007300;28;20432;-72
2021/04/22 02:12:43;;;;;;;4.03;1.95;;;20.80;42.90;;;;;;5007211;28;20421;-72
2021/04/22 02:15:11;;;;;;;3.78;2.15;;;20.80;42.60;;;;;;5005894;28;20536;-70
2021/04/22 02:17:37;;;;;;;6.55;1.88;;;20.80;42.40;;;;;;5005376;28;20477;-71
2021/04/22 02:20:06;;;;;;;5.80;1.80;;;20.80;42.40;;;;;;5006578;28;20408;-70
2021/04/22 02:22:32;;;;;;;5.63;2.05;;;20.90;42.60;;;;;;5004611;28;20423;-71
2021/04/22 02:24:58;;;;;;;5.70;2.00;;;20.90;42.30;;;;;;5005936;28;20452;-71
2021/04/22 02:27:24;;;;;;;6.53;2.30;;;20.90;42.30;;;;;;5006704;28;20420;-70
2021/04/22 02:29:51;;;;;;;5.05;1.92;;;20.90;42.10;;;;;;5010362;28;20408;-71
2021/04/22 02:32:17;;;;;;;5.03;2.40;;;21.00;42.10;;;;;;5005691;28;20479;-70
2021/04/22 02:34:43;;;;;;;5.65;2.35;;;21.00;41.90;;;;;;5006538;28;20436;-69
2021/04/22 02:37:09;;;;;;;5.70;1.90;;;21.00;41.80;;;;;;5000748;28;20431;-70
2021/04/22 02:39:35;;;;;;;6.10;2.00;;;21.00;41.90;;;;;;5004837;28;20421;-70
2021/04/22 02:42:02;;;;;;;3.90;2.00;;;21.00;41.80;;;;;;5000640;28;20442;-69
2021/04/22 02:44:28;;;;;;;8.63;2.20;;;21.00;42.10;;;;;;5006906;28;20423;-70
2021/04/22 02:46:55;;;;;;;4.68;1.80;;;21.00;42.50;;;;;;5007597;28;20445;-70
2021/04/22 02:49:21;;;;;;;5.20;2.00;;;20.90;42.50;;;;;;5006795;28;20899;-69
2021/04/22 02:51:47;;;;;;;5.47;2.10;;;20.90;42.40;;;;;;5005425;28;21929;-69
2021/04/22 02:54:13;;;;;;;8.65;2.65;;;20.90;43.20;;;;;;4998181;28;21074;-71
2021/04/22 02:56:39;;;;;;;4.57;1.98;;;20.90;42.30;;;;;;4999232;28;20424;-71
2021/04/22 02:59:05;;;;;;;5.82;2.50;;;20.80;42.20;;;;;;5002946;28;20456;-72
2021/04/22 03:01:32;;;;;;;4.60;1.98;;;20.80;42.30;;;;;;5005077;28;20411;-70
2021/04/22 03:03:59;;;;;;;5.95;2.40;;;20.80;42.00;;;;;;5005748;28;20755;-71
2021/04/22 03:06:25;;;;;;;7.60;2.40;;;20.80;42.60;;;;;;5006944;28;20423;-71
2021/04/22 03:08:51;;;;;;;6.40;2.60;;;20.80;42.40;;;;;;5011547;28;20456;-70
2021/04/22 03:11:17;;;;;;;6.53;1.80;;;20.80;42.80;;;;;;5005436;28;20420;-71
2021/04/22 03:13:43;;;;;;;6.75;2.20;;;20.80;42.60;;;;;;5004313;28;20425;-71
2021/04/22 03:16:09;;;;;;;5.28;1.92;;;20.80;42.70;;;;;;5017272;28;20416;-73
2021/04/22 03:18:35;;;;;;;6.15;2.00;;;20.80;42.70;;;;;;5019888;28;20416;-70
2021/04/22 03:21:02;;;;;;;8.40;2.50;;;20.90;42.60;;;;;;5008797;28;20429;-71
2021/04/22 03:23:28;;;;;;;5.05;2.05;;;20.90;42.50;;;;;;5006164;28;20423;-70
2021/04/22 03:25:55;;;;;;;6.15;2.28;;;20.90;42.30;;;;;;4994272;28;20415;-71
2021/04/22 03:28:21;;;;;;;6.80;2.30;;;21.00;42.30;;;;;;5004814;28;20424;-69
2021/04/22 03:30:47;;;;;;;3.72;2.10;;;21.10;42.10;;;;;;5001938;28;20419;-71
2021/04/22 03:33:13;;;;;;;4.15;1.90;;;21.10;41.90;;;;;;5006538;28;20424;-71
2021/04/22 03:35:39;;;;;;;8.83;2.40;;;21.20;41.90;;;;;;5004956;28;21001;-71
2021/04/22 03:38:06;;;;;;;6.90;2.25;;;21.20;41.70;;;;;;5008534;28;20805;-70
2021/04/22 03:40:32;;;;;;;6.45;2.25;;;21.20;41.60;;;;;;5006327;28;20425;-70
2021/04/22 03:42:58;;;;;;;10.55;2.03;;;21.20;41.60;;;;;;5004759;28;20446;-71
2021/04/22 03:45:25;;;;;;;4.78;1.95;;;21.20;41.60;;;;;;5006271;28;20426;-71
2021/04/22 03:47:51;;;;;;;7.93;2.47;;;21.20;41.70;;;;;;5006047;28;20416;-70
2021/04/22 03:50:18;;;;;;;6.90;2.65;;;21.20;41.70;;;;;;5003992;28;20978;-71
2021/04/22 03:52:44;;;;;;;4.45;1.90;;;21.10;41.90;;;;;;5006226;28;20425;-71
2021/04/22 03:55:12;;;;;;;6.07;1.90;;;21.10;41.90;;;;;;5004285;28;20852;-70
2021/04/22 03:57:39;;;;;;;4.93;1.98;;;21.10;42.00;;;;;;5012306;28;20500;-70
2021/04/22 04:00:06;;;;;;;5.15;2.10;;;21.10;42.00;;;;;;5005275;28;20465;-70
2021/04/22 04:02:32;;;;;;;7.30;2.10;;;21.10;42.00;;;;;;4995126;28;20412;-70
2021/04/22 04:04:58;;;;;;;4.80;2.00;;;21.00;41.80;;;;;;5004807;28;20422;-70
2021/04/22 04:07:24;;;;;;;7.90;2.27;;;21.00;41.80;;;;;;5005235;28;21222;-70
2021/04/22 04:09:50;;;;;;;6.97;1.90;;;21.00;42.00;;;;;;5003838;28;20527;-71
2021/04/22 04:12:17;;;;;;;2.90;2.00;;;21.00;41.80;;;;;;4996593;28;20415;-70
2021/04/22 04:14:43;;;;;;;5.75;2.10;;;21.00;41.80;;;;;;4998462;28;20417;-70
2021/04/22 04:17:09;;;;;;;3.92;1.60;;;21.00;41.70;;;;;;5004276;28;20424;-71
2021/04/22 04:19:36;;;;;;;4.90;1.83;;;21.00;41.70;;;;;;5005694;28;21403;-70
2021/04/22 04:22:02;;;;;;;6.83;2.00;;;21.00;41.60;;;;;;5004352;28;20403;-71
2021/04/22 04:24:28;;;;;;;3.50;1.63;;;21.10;41.60;;;;;;5004300;28;20460;-71
2021/04/22 04:26:54;;;;;;;5.95;1.95;;;21.10;41.40;;;;;;5004808;28;20430;-70
2021/04/22 04:29:21;;;;;;;4.35;2.22;;;21.20;41.20;;;;;;5003529;28;20428;-70
2021/04/22 04:31:47;;;;;;;4.70;1.80;;;21.20;41.10;;;;;;4995483;28;20933;-71
2021/04/22 04:34:14;;;;;;;5.37;2.07;;;21.20;40.80;;;;;;5017708;28;20807;-71
2021/04/22 04:36:43;;;;;;;4.95;2.05;;;21.20;40.80;;;;;;4999705;28;20778;-71
2021/04/22 04:39:10;;;;;;;4.63;1.55;;;21.30;40.90;;;;;;4994160;28;20422;-70
2021/04/22 04:41:36;;;;;;;5.10;1.90;;;21.20;40.80;;;;;;5003464;28;20805;-71
2021/04/22 04:44:02;;;;;;;5.82;1.80;;;21.20;40.90;;;;;;5002306;28;20940;-72
2021/04/22 04:46:30;;;;;;;8.10;1.70;;;21.20;41.10;;;;;;4997711;28;20424;-71
2021/04/22 04:48:57;;;;;;;4.82;1.80;;;21.20;41.30;;;;;;4998986;28;20464;-72
2021/04/22 04:51:23;;;;;;;8.68;2.85;;;21.20;41.20;;;;;;5004018;28;20420;-71
2021/04/22 04:53:51;;;;;;;7.07;1.90;;;21.10;40.90;;;;;;5009433;28;20431;-72
2021/04/22 04:56:18;;;;;;;6.78;2.20;;;21.10;40.90;;;;;;5011744;28;20432;-73
2021/04/22 04:58:44;;;;;;;6.93;2.47;;;21.10;40.90;;;;;;5008468;28;20438;-70
2021/04/22 05:01:10;;;;;;;4.53;2.00;;;21.10;40.80;;;;;;4997460;28;20412;-69
2021/04/22 05:03:38;;;;;;;5.22;2.00;;;21.10;40.80;;;;;;4999490;28;21051;-70
2021/04/22 05:06:04;;;;;;;5.35;2.20;;;21.10;41.70;;;;;;5007052;28;20428;-71
2021/04/22 05:08:30;;;;;;;6.88;2.28;;;21.00;41.10;;;;;;5008283;28;20427;-71
2021/04/22 05:10:58;;;;;;;7.05;2.10;;;21.10;40.90;;;;;;5005561;28;21389;-70
2021/04/22 05:13:24;;;;;;;5.22;1.70;;;21.10;40.50;;;;;;5009414;28;20419;-70
2021/04/22 05:15:50;;;;;;;8.73;1.80;;;21.20;40.50;;;;;;5006711;28;20433;-71
2021/04/22 05:18:16;;;;;;;4.60;2.10;;;21.20;40.20;;;;;;5007542;28;21026;-70
2021/04/22 05:20:43;;;;;;;4.35;1.95;;;21.30;40.00;;;;;;5000953;28;20935;-67
2021/04/22 05:23:09;;;;;;;8.50;2.55;;;21.30;40.00;;;;;;5005727;28;20877;-71
2021/04/22 05:25:36;;;;;;;5.93;2.00;;;21.30;40.00;;;;;;5006069;28;20493;-71
2021/04/22 05:28:02;;;;;;;4.97;2.00;;;21.30;40.00;;;;;;5007746;28;20427;-71
2021/04/22 05:30:28;;;;;;;5.80;2.27;;;21.30;40.00;;;;;;5006254;28;20468;-71
2021/04/22 05:32:54;;;;;;;3.85;2.00;;;21.20;40.00;;;;;;4990122;28;20430;-71
2021/04/22 05:35:20;;;;;;;4.07;1.88;;;21.20;40.20;;;;;;4996798;28;20414;-71
2021/04/22 05:37:47;;;;;;;5.53;1.90;;;21.10;40.30;;;;;;5003713;28;20438;-71
2021/04/22 05:40:14;;;;;;;5.93;1.90;;;21.10;40.70;;;;;;4997818;28;20481;-69
2021/04/22 05:42:41;;;;;;;6.40;2.20;;;21.10;40.60;;;;;;5002673;28;20430;-71
2021/04/22 05:45:08;;;;;;;10.13;2.25;;;21.00;40.20;;;;;;5001627;28;21569;-72
2021/04/22 05:47:34;;;;;;;9.40;2.20;;;21.00;40.50;;;;;;5003070;28;20418;-70
2021/04/22 05:50:00;;;;;;;7.38;1.95;;;21.00;40.20;;;;;;4987563;28;20428;-70
2021/04/22 05:52:26;;;;;;;7.63;2.70;;;21.00;39.70;;;;;;4990082;28;20417;-69
2021/04/22 05:54:53;;;;;;;10.20;2.30;;;20.90;39.60;;;;;;4998332;28;20493;-70
2021/04/22 05:57:19;;;;;;;8.02;2.10;;;20.90;38.80;;;;;;5002197;28;20727;-71
2021/04/22 05:59:45;;;;;;;6.25;1.83;;;21.00;38.70;;;;;;4998505;28;20928;-71
2021/04/22 06:02:11;;;;;;;5.55;2.03;;;21.00;38.70;;;;;;4999088;28;20433;-71
2021/04/22 06:04:38;;;;;;;9.85;2.75;;;21.00;38.80;;;;;;5002684;28;20421;-71
2021/04/22 06:07:04;;;;;;;8.25;2.40;;;21.00;38.70;;;;;;5000175;28;20490;-71
2021/04/22 06:09:30;;;;;;;8.30;2.47;;;21.00;38.70;;;;;;5002110;28;20411;-72
2021/04/22 06:11:57;;;;;;;8.90;2.35;;;21.00;38.70;;;;;;4997286;28;20796;-71
2021/04/22 06:14:23;;;;;;;10.15;2.60;;;21.00;38.90;;;;;;5000992;28;20427;-71
2021/04/22 06:16:49;;;;;;;8.68;2.20;;;21.00;39.50;;;;;;4997173;28;20421;-72
2021/04/22 06:19:16;;;;;;;6.40;2.00;;;21.00;38.90;;;;;;5001762;28;20924;-71
2021/04/22 06:21:42;;;;;;;6.63;2.03;;;21.00;39.20;;;;;;4998834;28;20463;-72
2021/04/22 06:24:09;;;;;;;7.57;2.75;;;21.00;39.30;;;;;;5002119;28;20545;-71
2021/04/22 06:26:36;;;;;;;5.93;2.30;;;21.00;39.50;;;;;;5004410;28;20799;-72
2021/04/22 06:29:04;;;;;;;13.40;2.90;;;21.00;40.00;;;;;;4989677;28;20417;-72
2021/04/22 06:31:31;;;;;;;9.95;2.10;;;21.00;40.10;;;;;;4997621;28;20407;-70
2021/04/22 06:33:57;;;;;;;8.88;2.50;;;21.00;40.10;;;;;;4998554;28;20427;-71
2021/04/22 06:36:23;;;;;;;6.90;1.95;;;20.90;40.10;;;;;;5000622;28;20787;-71
2021/04/22 06:38:49;;;;;;;7.47;2.00;;;20.90;39.70;;;;;;5001275;28;20427;-71
2021/04/22 06:41:15;;;;;;;7.05;1.92;;;20.90;40.00;;;;;;5002636;28;20432;-71
2021/04/22 06:43:42;;;;;;;6.63;2.00;;;20.90;39.90;;;;;;4997703;28;20428;-71
2021/04/22 06:46:09;;;;;;;5.30;1.95;;;20.90;40.00;;;;;;4999319;28;20423;-70
2021/04/22 06:48:35;;;;;;;6.10;2.30;;;20.90;40.10;;;;;;4999963;28;20428;-72
2021/04/22 06:51:01;;;;;;;6.65;1.90;;;20.90;40.10;;;;;;5002963;28;20421;-72
2021/04/22 06:53:27;;;;;;;7.32;2.45;;;20.90;40.20;;;;;;4995338;28;20458;-70
2021/04/22 06:55:53;;;;;;;6.63;2.05;;;20.90;40.00;;;;;;4998798;28;20415;-71
2021/04/22 06:58:19;;;;;;;5.13;2.17;;;20.90;40.90;;;;;;5000921;28;20575;-72
2021/04/22 07:00:45;;;;;;;6.97;2.30;;;20.90;40.00;;;;;;5006790;28;20426;-72
2021/04/22 07:03:12;;;;;;;7.15;2.00;;;21.00;40.10;;;;;;4991578;28;20424;-71
2021/04/22 07:05:39;;;;;;;9.25;2.17;;;21.10;40.00;;;;;;5000104;28;20458;-71
2021/04/22 07:08:06;;;;;;;8.93;2.47;;;21.10;39.70;;;;;;4999357;28;20889;-69
2021/04/22 07:10:32;;;;;;;6.72;2.33;;;21.10;39.40;;;;;;5001585;28;20425;-70
2021/04/22 07:12:59;;;;;;;7.95;2.40;;;21.10;39.30;;;;;;4996285;28;20415;-72
2021/04/22 07:15:25;;;;;;;7.80;2.63;;;21.10;39.80;;;;;;4998128;28;20430;-72
2021/04/22 07:17:51;;;;;;;7.90;2.25;;;21.10;39.30;;;;;;4991914;28;22031;-70
2021/04/22 07:20:19;;;;;;;7.88;2.28;;;21.20;39.10;;;;;;5009557;28;20421;-70
2021/04/22 07:22:46;;;;;;;6.03;2.10;;;21.20;38.90;;;;;;4999375;28;20437;-71
2021/04/22 07:25:13;;;;;;;4.35;2.30;;;21.20;38.90;;;;;;5002699;28;20407;-71
2021/04/22 07:27:39;;;;;;;8.50;2.20;;;21.30;39.00;;;;;;4999374;28;20427;-72
2021/04/22 07:30:06;;;;;;;8.13;3.42;;;21.30;39.00;;;;;;4998313;28;20908;-71
2021/04/22 07:32:33;;;;;;;9.05;3.40;;;21.30;39.00;;;;;;4996522;28;20419;-71
2021/04/22 07:34:59;;;;;;;10.60;2.65;;;21.30;39.00;;;;;;5001319;28;20757;-71
2021/04/22 07:37:26;;;;;;;11.40;3.00;;;21.30;39.00;;;;;;4981450;28;20419;-72
2021/04/22 07:39:52;;;;;;;6.65;2.67;;;21.30;39.00;;;;;;4999572;28;20929;-71
2021/04/22 07:42:18;;;;;;;7.47;2.60;;;21.30;39.00;;;;;;4995944;28;20428;-72
2021/04/22 07:44:47;;;;;;;9.20;2.67;;;21.30;39.00;;;;;;5002490;28;20416;-71
2021/04/22 07:47:13;;;;;;;11.68;3.60;;;21.20;38.90;;;;;;4998501;28;20948;-72
2021/04/22 07:49:39;;;;;;;7.35;2.90;;;21.20;38.90;;;;;;4998482;28;20433;-72
2021/04/22 07:52:06;;;;;;;4.97;2.35;;;21.20;38.90;;;;;;4996430;28;20480;-71
2021/04/22 07:54:33;;;;;;;9.43;2.45;;;21.10;38.80;;;;;;4999077;28;20469;-71
2021/04/22 07:56:59;;;;;;;7.75;2.30;;;21.20;38.90;;;;;;5000555;28;20437;-72
2021/04/22 07:59:25;;;;;;;8.13;2.72;;;21.10;38.80;;;;;;4998650;28;20434;-72
2021/04/22 08:01:52;;;;;;;9.05;2.60;;;21.10;38.90;;;;;;4997341;28;20424;-71
2021/04/22 08:04:18;;;;;;;6.85;2.90;;;21.10;38.80;;;;;;4999779;28;20409;-72
2021/04/22 08:06:44;;;;;;;21.95;10.02;;;21.00;38.70;;;;;;4996752;28;20420;-71
2021/04/22 08:09:10;;;;;;;22.30;11.67;;;21.00;38.70;;;;;;4995673;28;20960;-70
2021/04/22 08:11:37;;;;;;;19.30;8.73;;;21.00;38.80;;;;;;5000839;28;20427;-73
2021/04/22 08:14:04;;;;;;;15.98;7.18;;;20.90;38.70;;;;;;4994549;28;20414;-71
2021/04/22 08:16:30;;;;;;;10.07;5.68;;;21.00;38.70;;;;;;5000038;28;20468;-72
2021/04/22 08:18:56;;;;;;;14.57;4.95;;;20.90;38.60;;;;;;4999978;28;20796;-71
2021/04/22 08:21:23;;;;;;;13.73;4.88;;;21.00;38.80;;;;;;5003340;28;20905;-71
2021/04/22 08:23:49;;;;;;;10.07;3.80;;;21.00;38.70;;;;;;4995957;28;20411;-71
2021/04/22 08:26:18;;;;;;;8.32;3.47;;;21.00;38.80;;;;;;5000581;28;20433;-71
2021/04/22 08:28:45;;;;;;;6.35;3.40;;;21.00;38.70;;;;;;4996006;28;21263;-71
2021/04/22 08:31:13;;;;;;;8.68;3.50;;;21.00;38.70;;;;;;4997895;28;20421;-72
2021/04/22 08:33:39;;;;;;;7.43;3.10;;;21.00;38.70;;;;;;4996345;28;20420;-73
2021/04/22 08:36:06;;;;;;;8.90;3.75;;;21.00;38.70;;;;;;4996437;28;20419;-71
2021/04/22 08:38:33;;;;;;;6.78;3.40;;;21.10;38.80;;;;;;5001515;28;20423;-72
2021/04/22 08:40:59;;;;;;;6.05;3.03;;;21.10;38.80;;;;;;4984492;28;20437;-72
2021/04/22 08:43:25;;;;;;;6.53;3.10;;;21.10;38.80;;;;;;4997977;28;20407;-72
2021/04/22 08:45:52;;;;;;;5.63;3.10;;;21.10;38.80;;;;;;4999533;28;20409;-72
2021/04/22 08:48:19;;;;;;;9.98;2.85;;;21.10;38.80;;;;;;4999900;28;20429;-73
2021/04/22 08:50:47;;;;;;;20.90;5.78;;;21.00;36.80;;;;;;5000257;28;20437;-71
2021/04/22 08:53:15;;;;;;;18.48;5.18;;;20.30;42.60;;;;;;4990049;28;20511;-74
2021/04/22 08:55:41;;;;;;;20.92;5.63;;;20.30;47.00;;;;;;4996258;28;20484;-73
2021/04/22 08:58:08;;;;;;;25.42;6.65;;;20.30;75.20;;;;;;5004226;28;21495;-71
2021/04/22 09:00:36;;;;;;;26.88;6.95;;;20.30;81.50;;;;;;4998581;28;20787;-76
2021/04/22 09:03:04;;;;;;;28.17;6.60;;;20.50;88.10;;;;;;4996326;28;20426;-70
2021/04/22 09:05:30;;;;;;;46.05;8.45;;;20.80;88.90;;;;;;4995710;28;20429;-73
2021/04/22 09:07:56;;;;;;;51.40;8.50;;;21.00;91.70;;;;;;4996851;28;20490;-74
2021/04/22 09:10:24;;;;;;;61.42;11.20;;;21.10;88.80;;;;;;4989614;28;20425;-72
2021/04/22 09:13:01;;;;;;;87.60;13.27;;;21.20;89.40;;;;;;4999902;28;20422;-74
2021/04/22 09:15:28;;;;;;;128.55;19.85;;;21.30;91.40;;;;;;4977308;28;20919;-71
2021/04/22 09:17:59;;;;;;;152.10;25.80;;;21.50;92.40;;;;;;4982239;28;20421;-72
2021/04/22 09:20:31;;;;;;;167.35;26.90;;;21.60;91.50;;;;;;4990882;28;20422;-72
2021/04/22 09:22:58;;;;;;;172.35;32.38;;;21.70;88.50;;;;;;4971725;28;20917;-71
2021/04/22 09:25:26;;;;;;;175.15;33.10;;;21.70;79.00;;;;;;5002795;28;20419;-74
2021/04/22 09:27:55;;;;;;;146.60;31.02;;;21.40;66.60;;;;;;5003014;28;20413;-72
2021/04/22 09:30:31;;;;;;;132.23;29.90;;;21.00;74.50;;;;;;4996811;28;20417;-74
2021/04/22 09:32:57;;;;;;;119.70;23.98;;;21.00;81.00;;;;;;4986803;28;20407;-72
2021/04/22 09:35:25;;;;;;;83.65;16.23;;;21.20;71.90;;;;;;5000805;28;20973;-72
2021/04/22 09:37:53;;;;;;;51.13;11.80;;;21.30;59.40;;;;;;5005588;28;20838;-70
2021/04/22 09:40:26;;;;;;;41.08;11.52;;;21.20;52.20;;;;;;5002315;28;20413;-72
2021/04/22 09:42:53;;;;;;;32.88;10.10;;;21.00;51.20;;;;;;5002253;28;20417;-73
2021/04/22 09:45:21;;;;;;;40.07;9.30;;;20.90;53.80;;;;;;5001796;28;20440;-72
2021/04/22 09:47:47;;;;;;;28.83;7.93;;;20.80;45.10;;;;;;5005149;28;20424;-72
2021/04/22 09:50:16;;;;;;;29.17;6.43;;;20.10;45.20;;;;;;5007525;28;20505;-71
2021/04/22 09:52:43;;;;;;;20.52;6.45;;;19.50;46.20;;;;;;4997764;28;20420;-74
2021/04/22 09:55:12;;;;;;;25.02;5.82;;;19.10;45.90;;;;;;5002818;28;20477;-73
2021/04/22 09:57:38;;;;;;;18.90;5.07;;;18.80;45.60;;;;;;4998257;28;20460;-72
2021/04/22 10:00:05;;;;;;;16.83;5.40;;;18.60;45.40;;;;;;5003795;28;20542;-73
2021/04/22 10:02:42;;;;;;;15.90;4.90;;;18.50;47.30;;;;;;4996940;28;20430;-74
2021/04/22 10:05:15;;;;;;;13.95;4.80;;;18.40;44.80;;;;;;4989103;28;20456;-72
2021/04/22 10:07:44;;;;;;;13.83;5.00;;;18.40;44.40;;;;;;4998257;28;20475;-72
2021/04/22 10:10:21;;;;;;;16.15;5.15;;;18.30;44.50;;;;;;4998296;28;20423;-74
2021/04/22 10:12:50;;;;;;;8.65;3.83;;;18.30;44.20;;;;;;4997811;28;20421;-72
2021/04/22 10:15:18;;;;;;;12.55;4.20;;;18.20;44.10;;;;;;5001883;28;20794;-72
2021/04/22 10:17:53;;;;;;;26.37;4.87;;;18.20;44.20;;;;;;4998022;28;20466;-73
2021/04/22 10:20:20;;;;;;;21.70;5.85;;;18.20;43.60;;;;;;4992748;28;20837;-74
2021/04/22 10:22:47;;;;;;;16.02;4.20;;;18.20;43.80;;;;;;4983339;28;20429;-71
2021/04/22 10:25:16;;;;;;;10.02;4.00;;;18.10;43.30;;;;;;5006623;28;20426;-71
2021/04/22 10:27:42;;;;;;;14.00;4.00;;;18.10;44.20;;;;;;4999532;28;20431;-71
2021/04/22 10:30:10;;;;;;;19.70;4.05;;;18.10;43.50;;;;;;4998142;28;20424;-70
2021/04/22 10:32:36;;;;;;;13.35;3.63;;;18.00;43.50;;;;;;5004809;28;20442;-71
2021/04/22 10:35:02;;;;;;;14.82;4.10;;;18.00;43.30;;;;;;5005360;28;20420;-74
2021/04/22 10:37:31;;;;;;;7.97;3.65;;;18.00;43.50;;;;;;5003350;28;20411;-71
2021/04/22 10:39:57;;;;;;;12.95;3.88;;;17.90;43.30;;;;;;4983975;28;20413;-71
2021/04/22 10:42:24;;;;;;;9.73;3.60;;;17.90;44.10;;;;;;4994944;28;20867;-75
2021/04/22 10:44:51;;;;;;;14.90;3.70;;;17.90;44.00;;;;;;4997394;28;20425;-72
2021/04/22 10:47:17;;;;;;;10.10;3.80;;;18.00;44.00;;;;;;5001312;28;20429;-70
2021/04/22 10:49:44;;;;;;;5.97;3.50;;;17.90;43.80;;;;;;5000813;28;20424;-72
2021/04/22 10:52:10;;;;;;;11.95;3.92;;;18.00;43.80;;;;;;4997608;28;20419;-72
2021/04/22 10:54:38;;;;;;;13.88;3.80;;;18.10;43.60;;;;;;5000394;28;20433;-71
2021/04/22 10:57:06;;;;;;;10.82;3.28;;;18.10;43.10;;;;;;5000485;28;20408;-72
2021/04/22 10:59:34;;;;;;;9.70;3.35;;;18.00;43.70;;;;;;4999509;28;20421;-72
2021/04/22 11:02:11;;;;;;;11.50;3.75;;;18.10;43.70;;;;;;4999042;28;20546;-73
2021/04/22 11:04:37;;;;;;;11.88;3.90;;;18.00;43.40;;;;;;4999946;28;20415;-73
2021/04/22 11:07:13;;;;;;;9.60;3.22;;;18.00;43.70;;;;;;5002176;28;20432;-72
2021/04/22 11:09:39;;;;;;;11.35;3.58;;;17.90;43.70;;;;;;5000657;28;20427;-72
2021/04/22 11:12:06;;;;;;;8.73;3.50;;;17.90;43.40;;;;;;4998995;28;20495;-72
2021/04/22 11:14:38;;;;;;;9.63;3.70;;;17.90;43.70;;;;;;4995328;28;20436;-73
2021/04/22 11:17:04;;;;;;;5.80;2.70;;;17.80;44.00;;;;;;4998270;28;20420;-71
2021/04/22 11:19:34;;;;;;;8.18;3.28;;;18.00;44.90;;;;;;4998887;28;20934;-71
2021/04/22 11:22:02;;;;;;;6.80;2.65;;;18.60;43.80;;;;;;4981376;28;20849;-72
2021/04/22 11:24:32;;;;;;;6.47;2.50;;;19.20;43.00;;;;;;4980881;28;20417;-69
2021/04/22 11:26:59;;;;;;;7.13;3.10;;;19.60;42.30;;;;;;4995825;28;20407;-70
2021/04/22 11:29:25;;;;;;;5.00;2.50;;;19.90;41.90;;;;;;5004020;28;20418;-71
2021/04/22 11:31:53;;;;;;;3.47;2.10;;;20.10;41.60;;;;;;4997357;28;20418;-72
2021/04/22 11:34:30;;;;;;;7.63;3.00;;;20.30;41.40;;;;;;4984712;28;20880;-71
2021/04/22 11:36:56;;;;;;;6.38;2.63;;;20.40;41.10;;;;;;4998210;28;20764;-71
2021/04/22 11:39:29;;;;;;;6.53;2.30;;;20.40;41.00;;;;;;4996259;28;20428;-72
2021/04/22 11:41:56;;;;;;;5.72;2.80;;;20.50;41.30;;;;;;4997681;28;20419;-72
2021/04/22 11:44:31;;;;;;;2.60;2.20;;;20.50;41.20;;;;;;5003676;28;20424;-70
2021/04/22 11:46:58;;;;;;;6.60;2.50;;;20.50;40.90;;;;;;4983311;28;20406;-70
2021/04/22 11:49:25;;;;;;;4.72;2.50;;;20.50;40.70;;;;;;5005606;28;20418;-71
2021/04/22 11:51:51;;;;;;;4.07;2.50;;;20.50;40.90;;;;;;4997686;28;20415;-71
2021/04/22 11:54:19;;;;;;;8.00;2.58;;;20.50;40.90;;;;;;4995736;28;21039;-70
2021/04/22 11:56:48;;;;;;;4.53;2.10;;;20.50;40.70;;;;;;4999151;28;20434;-72
2021/04/22 11:59:17;;;;;;;5.95;2.42;;;20.50;40.70;;;;;;4997672;28;20412;-72
2021/04/22 12:01:52;;;;;;;3.10;2.35;;;20.50;40.50;;;;;;5012433;28;20440;-72
2021/04/22 12:04:20;;;;;;;2.65;1.85;;;20.50;40.50;;;;;;5021982;28;20550;-72
2021/04/22 12:06:50;;;;;;;7.15;2.47;;;20.60;40.60;;;;;;5023512;28;20420;-70
2021/04/22 12:09:26;;;;;;;6.05;2.50;;;20.60;40.60;;;;;;4997519;28;20425;-70
2021/04/22 12:11:52;;;;;;;7.00;1.95;;;20.60;40.80;;;;;;4991976;28;20416;-71
2021/04/22 12:14:27;;;;;;;3.05;2.20;;;20.60;40.90;;;;;;4993799;28;20416;-70
2021/04/22 12:16:53;;;;;;;6.10;2.60;;;20.60;41.10;;;;;;4992045;28;21000;-71
2021/04/22 12:19:24;;;;;;;4.88;2.50;;;20.70;41.10;;;;;;5006232;28;21071;-71
2021/04/22 12:21:50;;;;;;;5.27;2.90;;;20.70;41.20;;;;;;4979646;28;20449;-71
2021/04/22 12:24:21;;;;;;;6.63;2.40;;;20.70;41.10;;;;;;4985920;28;20432;-70
2021/04/22 12:26:47;;;;;;;4.03;2.13;;;20.70;41.00;;;;;;4987846;28;21253;-71
2021/04/22 12:29:14;;;;;;;5.80;2.20;;;20.80;40.90;;;;;;4994530;28;20504;-71
2021/04/22 12:31:40;;;;;;;6.03;2.72;;;20.80;40.80;;;;;;4992784;28;20423;-72
2021/04/22 12:34:09;;;;;;;5.00;2.15;;;20.80;41.10;;;;;;4995366;28;20463;-69
2021/04/22 12:36:36;;;;;;;3.40;2.22;;;20.80;41.20;;;;;;5001744;28;20438;-70
2021/04/22 12:39:03;;;;;;;6.28;2.40;;;20.80;40.90;;;;;;4985536;28;20468;-72
2021/04/22 12:41:29;;;;;;;4.03;2.33;;;20.80;41.10;;;;;;4997675;28;20421;-71